Time;durP1;ratioP1;P1;durP2;ratioP2;P2;SDS_P1;SDS_P2;PMS_P1;PMS_P2;Temp;Humidity;BMP_temperature;BMP_pressure;BME280_temperature;BME280_humidity;BME280_pressure;Samples;Min_cycle;Max_cycle;Signal;HPM_P1;HPM_P2
2023/09/12 00:00:11;;;;;;;43.25;35.53;;;;;;;;;;5020092;28;20254;-79
2023/09/12 00:02:37;;;;;;;44.55;36.85;;;;;;;;;;5036453;28;20207;-79
2023/09/12 00:05:04;;;;;;;47.72;37.90;;;;;;;;;;5036598;28;20172;-79
2023/09/12 00:07:30;;;;;;;46.42;37.25;;;;;;;;;;5036059;28;20183;-79
2023/09/12 00:09:56;;;;;;;42.13;36.03;;;;;;;;;;5019987;28;20191;-79
2023/09/12 00:12:24;;;;;;;44.78;38.35;;;;;;;;;;5019946;28;20184;-79
2023/09/12 00:14:50;;;;;;;51.63;39.25;;;;;;;;;;5036111;28;20183;-83
2023/09/12 00:17:17;;;;;;;46.42;39.67;;;;;;;;;;5015253;28;20212;-83
2023/09/12 00:19:43;;;;;;;50.67;41.03;;;;;;;;;;5000087;28;20188;-83
2023/09/12 00:22:09;;;;;;;48.95;40.55;;;;;;;;;;5024655;28;20250;-83
2023/09/12 00:24:35;;;;;;;47.13;40.50;;;;;;;;;;5020074;28;20274;-83
2023/09/12 00:27:04;;;;;;;47.13;39.95;;;;;;;;;;5036341;28;20241;-83
2023/09/12 00:29:30;;;;;;;46.67;39.60;;;;;;;;;;5020355;28;20233;-82
2023/09/12 00:31:56;;;;;;;46.95;38.45;;;;;;;;;;5036160;28;20220;-76
2023/09/12 00:34:22;;;;;;;47.03;39.63;;;;;;;;;;5019773;28;20183;-76
2023/09/12 00:36:48;;;;;;;49.95;39.63;;;;;;;;;;5019471;28;20223;-76
2023/09/12 00:39:14;;;;;;;46.57;39.40;;;;;;;;;;5036232;28;20262;-76
2023/09/12 00:41:40;;;;;;;45.05;37.90;;;;;;;;;;5053546;28;20175;-76
2023/09/12 00:44:06;;;;;;;42.50;36.83;;;;;;;;;;5053538;28;20176;-77
2023/09/12 00:46:33;;;;;;;40.30;36.10;;;;;;;;;;5053722;28;20232;-76
2023/09/12 00:48:59;;;;;;;44.40;37.73;;;;;;;;;;5019940;28;20528;-81
2023/09/12 00:51:26;;;;;;;43.92;36.95;;;;;;;;;;5036149;28;20180;-81
2023/09/12 00:53:53;;;;;;;47.43;39.83;;;;;;;;;;5039670;28;20191;-81
2023/09/12 00:56:19;;;;;;;51.73;42.13;;;;;;;;;;5057273;28;20206;-81
2023/09/12 00:58:46;;;;;;;48.37;41.60;;;;;;;;;;5023218;28;20220;-81
2023/09/12 01:01:12;;;;;;;53.13;43.17;;;;;;;;;;5039731;28;20176;-82
2023/09/12 01:03:38;;;;;;;54.63;42.07;;;;;;;;;;5023376;28;20180;-81
2023/09/12 01:06:05;;;;;;;55.27;41.83;;;;;;;;;;5039652;28;20253;-84
2023/09/12 01:08:31;;;;;;;50.17;41.97;;;;;;;;;;5039841;28;20171;-84
2023/09/12 01:10:57;;;;;;;52.03;41.93;;;;;;;;;;5022715;28;20195;-83
2023/09/12 01:13:24;;;;;;;50.40;41.17;;;;;;;;;;5023311;28;20180;-83
2023/09/12 01:15:50;;;;;;;49.43;41.17;;;;;;;;;;5057119;28;20187;-84
2023/09/12 01:18:16;;;;;;;51.90;40.63;;;;;;;;;;5022740;28;20173;-83
2023/09/12 01:20:51;;;;;;;52.03;40.93;;;;;;;;;;5039045;28;20175;-83
2023/09/12 01:23:27;;;;;;;60.03;43.03;;;;;;;;;;5039267;28;20226;-81
2023/09/12 01:26:15;;;;;;;52.13;42.03;;;;;;;;;;5039510;28;20183;-82
2023/09/12 01:28:43;;;;;;;50.67;41.43;;;;;;;;;;5039421;28;20226;-81
2023/09/12 01:31:10;;;;;;;53.63;41.27;;;;;;;;;;5039105;28;20172;-82
2023/09/12 01:33:36;;;;;;;51.23;42.07;;;;;;;;;;5039610;28;20238;-82
2023/09/12 01:36:02;;;;;;;57.40;42.37;;;;;;;;;;5022793;28;20180;-82
2023/09/12 01:38:29;;;;;;;49.83;41.10;;;;;;;;;;5022673;28;20184;-77
2023/09/12 01:40:55;;;;;;;49.23;39.73;;;;;;;;;;5039073;28;20221;-77
2023/09/12 01:43:22;;;;;;;46.03;38.67;;;;;;;;;;5038960;28;20180;-77
2023/09/12 01:45:50;;;;;;;53.07;41.03;;;;;;;;;;5038327;28;20188;-77
2023/09/12 01:48:19;;;;;;;49.50;39.67;;;;;;;;;;5033882;28;20180;-77
2023/09/12 01:50:45;;;;;;;49.80;38.17;;;;;;;;;;5037860;28;20175;-77
2023/09/12 01:53:11;;;;;;;49.87;38.93;;;;;;;;;;5022415;28;20292;-77
2023/09/12 01:55:38;;;;;;;49.60;40.30;;;;;;;;;;5040227;28;20177;-81
2023/09/12 01:58:04;;;;;;;54.60;40.47;;;;;;;;;;5018498;28;20303;-81
2023/09/12 02:00:30;;;;;;;53.50;39.60;;;;;;;;;;5018828;28;20181;-81
2023/09/12 02:02:56;;;;;;;47.00;39.27;;;;;;;;;;5036506;28;20338;-81
2023/09/12 02:05:22;;;;;;;47.57;38.23;;;;;;;;;;5054199;28;20195;-80
2023/09/12 02:07:49;;;;;;;47.63;38.00;;;;;;;;;;5035888;28;20191;-80
2023/09/12 02:10:15;;;;;;;47.73;38.97;;;;;;;;;;5021540;28;20188;-80
2023/09/12 02:12:41;;;;;;;49.87;40.93;;;;;;;;;;5048511;28;20184;-76
2023/09/12 02:15:08;;;;;;;47.60;38.97;;;;;;;;;;5035283;28;20185;-77
2023/09/12 02:17:34;;;;;;;52.13;40.77;;;;;;;;;;5038771;28;20216;-77
2023/09/12 02:20:00;;;;;;;48.17;40.57;;;;;;;;;;5025222;28;20186;-77
2023/09/12 02:22:26;;;;;;;48.50;39.07;;;;;;;;;;5012583;28;20323;-77
2023/09/12 02:24:52;;;;;;;51.60;39.67;;;;;;;;;;5001645;28;20268;-77
2023/09/12 02:27:18;;;;;;;46.77;39.20;;;;;;;;;;4999939;28;20188;-77
2023/09/12 02:29:44;;;;;;;46.00;37.00;;;;;;;;;;5000075;28;20177;-84
2023/09/12 02:32:10;;;;;;;45.90;37.97;;;;;;;;;;4982580;28;20182;-84
2023/09/12 02:34:36;;;;;;;48.57;37.60;;;;;;;;;;5016255;28;20176;-84
2023/09/12 02:37:02;;;;;;;45.93;38.03;;;;;;;;;;5017721;28;20961;-84
2023/09/12 02:39:28;;;;;;;47.10;38.30;;;;;;;;;;5001718;28;20191;-84
2023/09/12 02:41:54;;;;;;;48.90;36.90;;;;;;;;;;5018159;28;20185;-85
2023/09/12 02:44:20;;;;;;;50.60;38.20;;;;;;;;;;5001681;28;20184;-82
2023/09/12 02:46:48;;;;;;;45.43;37.83;;;;;;;;;;5001856;28;20256;-82
2023/09/12 02:49:14;;;;;;;44.30;36.83;;;;;;;;;;5017974;28;20234;-82
2023/09/12 02:51:41;;;;;;;42.27;36.00;;;;;;;;;;5001625;28;20185;-82
2023/09/12 02:54:07;;;;;;;45.27;35.80;;;;;;;;;;5017675;28;20187;-82
2023/09/12 02:56:33;;;;;;;43.93;35.90;;;;;;;;;;5017460;28;20209;-81
2023/09/12 02:58:59;;;;;;;49.73;37.33;;;;;;;;;;5001385;28;20184;-82
2023/09/12 03:01:27;;;;;;;48.43;36.67;;;;;;;;;;5001844;28;20214;-77
2023/09/12 03:03:53;;;;;;;41.27;33.47;;;;;;;;;;5018002;28;20199;-77
2023/09/12 03:06:19;;;;;;;43.67;33.60;;;;;;;;;;5001289;28;20250;-77
2023/09/12 03:08:45;;;;;;;38.73;33.50;;;;;;;;;;5017567;28;20180;-77
2023/09/12 03:11:11;;;;;;;42.07;33.00;;;;;;;;;;5017542;28;20188;-77
2023/09/12 03:13:38;;;;;;;39.10;33.40;;;;;;;;;;5017317;28;20181;-77
2023/09/12 03:16:04;;;;;;;40.23;33.17;;;;;;;;;;5016478;28;20187;-77
2023/09/12 03:18:31;;;;;;;40.10;34.13;;;;;;;;;;5001461;28;20215;-80
2023/09/12 03:20:57;;;;;;;39.57;34.10;;;;;;;;;;5017229;28;20191;-80
2023/09/12 03:23:23;;;;;;;42.50;33.37;;;;;;;;;;5014418;28;20291;-80
2023/09/12 03:25:49;;;;;;;42.77;34.97;;;;;;;;;;5020633;28;20194;-80
2023/09/12 03:28:15;;;;;;;41.20;33.47;;;;;;;;;;5036673;28;20194;-80
2023/09/12 03:30:41;;;;;;;42.07;34.57;;;;;;;;;;5013449;28;20199;-80
2023/09/12 03:33:07;;;;;;;47.30;35.57;;;;;;;;;;5017138;28;20176;-80
2023/09/12 03:35:33;;;;;;;47.33;35.70;;;;;;;;;;5000688;28;20222;-80
2023/09/12 03:38:00;;;;;;;69.27;36.10;;;;;;;;;;5017007;28;20254;-80
2023/09/12 03:40:26;;;;;;;81.50;39.63;;;;;;;;;;5017058;28;20208;-80
2023/09/12 03:42:52;;;;;;;61.83;37.90;;;;;;;;;;5018822;28;20205;-80
2023/09/12 03:45:18;;;;;;;63.90;38.63;;;;;;;;;;5020214;28;20210;-80
2023/09/12 03:47:46;;;;;;;81.07;37.17;;;;;;;;;;5036896;28;20219;-80
2023/09/12 03:50:13;;;;;;;140.47;35.77;;;;;;;;;;5037386;28;20172;-80
2023/09/12 03:52:39;;;;;;;69.70;36.97;;;;;;;;;;5036524;28;20176;-84
2023/09/12 03:55:05;;;;;;;127.10;39.53;;;;;;;;;;5020139;28;20286;-83
2023/09/12 03:57:31;;;;;;;74.27;37.10;;;;;;;;;;5019801;28;20262;-83
2023/09/12 03:59:57;;;;;;;229.57;40.90;;;;;;;;;;5020391;28;20245;-84
2023/09/12 04:02:25;;;;;;;150.00;43.00;;;;;;;;;;5036530;28;20215;-82
2023/09/12 04:04:51;;;;;;;76.90;39.60;;;;;;;;;;5020453;28;20247;-84
2023/09/12 04:07:17;;;;;;;87.07;41.70;;;;;;;;;;5019928;28;20180;-84
2023/09/12 04:09:44;;;;;;;139.97;40.67;;;;;;;;;;5020005;28;20218;-80
2023/09/12 04:12:10;;;;;;;80.63;38.80;;;;;;;;;;5036280;28;20179;-80
2023/09/12 04:14:36;;;;;;;55.60;38.97;;;;;;;;;;5020033;28;20241;-80
2023/09/12 04:17:03;;;;;;;64.53;41.53;;;;;;;;;;5035060;28;20216;-80
2023/09/12 04:19:31;;;;;;;73.47;41.83;;;;;;;;;;5016649;28;20177;-80
2023/09/12 04:22:00;;;;;;;57.07;41.00;;;;;;;;;;5016259;28;20254;-80
2023/09/12 04:24:26;;;;;;;62.83;42.37;;;;;;;;;;4997348;28;20196;-85
2023/09/12 04:26:52;;;;;;;60.97;41.63;;;;;;;;;;5016515;28;20248;-84
2023/09/12 04:29:18;;;;;;;53.87;39.63;;;;;;;;;;5001024;28;20188;-85
2023/09/12 04:31:44;;;;;;;57.43;40.90;;;;;;;;;;5001278;28;20189;-84
2023/09/12 04:34:10;;;;;;;60.10;39.20;;;;;;;;;;5005150;28;20200;-84
2023/09/12 04:36:36;;;;;;;67.93;40.60;;;;;;;;;;5024372;28;20337;-84
2023/09/12 04:39:02;;;;;;;62.27;40.93;;;;;;;;;;5023767;28;20270;-84
2023/09/12 04:41:28;;;;;;;57.90;40.67;;;;;;;;;;5023712;28;20200;-77
2023/09/12 04:43:54;;;;;;;50.80;39.13;;;;;;;;;;5033287;28;20211;-77
2023/09/12 04:46:20;;;;;;;50.70;39.70;;;;;;;;;;5000606;28;20219;-77
2023/09/12 04:48:46;;;;;;;56.00;39.83;;;;;;;;;;5000692;28;20197;-77
2023/09/12 04:51:12;;;;;;;49.60;39.33;;;;;;;;;;5007251;28;20266;-78
2023/09/12 04:53:39;;;;;;;55.07;40.63;;;;;;;;;;5023836;28;20226;-77
2023/09/12 04:56:06;;;;;;;55.80;41.80;;;;;;;;;;5040169;28;20211;-80
2023/09/12 04:58:32;;;;;;;55.37;40.57;;;;;;;;;;5024119;28;20179;-84
2023/09/12 05:00:58;;;;;;;54.27;40.47;;;;;;;;;;5023456;28;20208;-85
2023/09/12 05:03:24;;;;;;;50.40;39.93;;;;;;;;;;5057415;28;20179;-84
2023/09/12 05:05:51;;;;;;;58.37;40.93;;;;;;;;;;5039749;28;20314;-84
2023/09/12 05:08:20;;;;;;;68.53;45.70;;;;;;;;;;5022661;28;20180;-84
2023/09/12 05:10:46;;;;;;;68.43;46.30;;;;;;;;;;5057160;28;20184;-84
2023/09/12 05:13:12;;;;;;;65.57;44.50;;;;;;;;;;5039271;28;20191;-84
2023/09/12 05:15:39;;;;;;;70.47;44.43;;;;;;;;;;5023199;28;20243;-84
2023/09/12 05:18:05;;;;;;;67.00;44.83;;;;;;;;;;5022792;28;20235;-84
2023/09/12 05:20:32;;;;;;;67.87;46.10;;;;;;;;;;5039173;28;20198;-84
2023/09/12 05:22:58;;;;;;;59.17;43.33;;;;;;;;;;5034031;28;20320;-84
2023/09/12 05:25:24;;;;;;;62.43;45.67;;;;;;;;;;5051221;28;20188;-84
2023/09/12 05:27:50;;;;;;;62.40;45.40;;;;;;;;;;5056343;28;20190;-84
2023/09/12 05:30:16;;;;;;;63.73;45.93;;;;;;;;;;5026839;28;20191;-84
2023/09/12 05:32:42;;;;;;;69.57;47.23;;;;;;;;;;5039202;28;20187;-85
2023/09/12 05:35:08;;;;;;;64.77;48.27;;;;;;;;;;5038849;28;20180;-83
2023/09/12 05:37:34;;;;;;;65.10;46.27;;;;;;;;;;5056212;28;20709;-85
2023/09/12 05:40:00;;;;;;;77.57;52.07;;;;;;;;;;5000713;28;20185;-85
2023/09/12 05:42:26;;;;;;;85.53;56.47;;;;;;;;;;5008237;28;20184;-85
2023/09/12 05:44:56;;;;;;;91.97;60.00;;;;;;;;;;5039348;28;20183;-84
2023/09/12 05:47:22;;;;;;;89.77;58.37;;;;;;;;;;5029326;28;20265;-84
2023/09/12 05:49:48;;;;;;;95.20;59.37;;;;;;;;;;5019526;28;20203;-77
2023/09/12 05:52:14;;;;;;;97.77;63.13;;;;;;;;;;5055397;28;20180;-77
2023/09/12 05:54:40;;;;;;;94.90;60.73;;;;;;;;;;5054199;28;20188;-77
2023/09/12 05:57:07;;;;;;;92.40;61.77;;;;;;;;;;5037532;28;20208;-77
2023/09/12 05:59:35;;;;;;;92.73;61.87;;;;;;;;;;5038167;28;20175;-78
2023/09/12 06:02:01;;;;;;;91.63;60.63;;;;;;;;;;5021443;28;20185;-78
2023/09/12 06:04:27;;;;;;;92.67;61.53;;;;;;;;;;5055098;28;20190;-78
2023/09/12 06:06:53;;;;;;;94.73;62.53;;;;;;;;;;5038662;28;20279;-78
2023/09/12 06:09:19;;;;;;;98.57;63.80;;;;;;;;;;5056110;28;20184;-78
2023/09/12 06:11:45;;;;;;;93.87;60.43;;;;;;;;;;5026947;28;20242;-78
2023/09/12 06:14:11;;;;;;;91.53;61.97;;;;;;;;;;4998902;28;20189;-78
2023/09/12 06:16:37;;;;;;;96.27;61.23;;;;;;;;;;5009025;28;20207;-79
2023/09/12 06:19:03;;;;;;;97.23;62.97;;;;;;;;;;5019346;28;20190;-79
2023/09/12 06:21:29;;;;;;;93.67;61.53;;;;;;;;;;5043407;28;20195;-82
2023/09/12 06:24:10;;;;;;;98.37;61.87;;;;;;;;;;5027808;28;20191;-82
2023/09/12 06:26:36;;;;;;;95.97;61.90;;;;;;;;;;5020943;28;20201;-82
2023/09/12 06:29:02;;;;;;;100.33;65.00;;;;;;;;;;5015301;28;20192;-83
2023/09/12 06:31:28;;;;;;;93.10;62.50;;;;;;;;;;5015998;28;20194;-83
2023/09/12 06:33:54;;;;;;;99.60;64.10;;;;;;;;;;5016130;28;20196;-83
2023/09/12 06:36:20;;;;;;;93.63;62.83;;;;;;;;;;5017258;28;20220;-82
2023/09/12 06:38:46;;;;;;;92.90;62.07;;;;;;;;;;5021323;28;20184;-78
2023/09/12 06:41:12;;;;;;;99.73;64.37;;;;;;;;;;5021250;28;20195;-78
2023/09/12 06:43:38;;;;;;;99.37;63.73;;;;;;;;;;5037543;28;20191;-78
2023/09/12 06:46:05;;;;;;;99.40;63.53;;;;;;;;;;5038646;28;20186;-79
2023/09/12 06:48:31;;;;;;;92.87;63.83;;;;;;;;;;5021221;28;20184;-79
2023/09/12 06:50:57;;;;;;;96.03;63.53;;;;;;;;;;5033468;28;20189;-79
2023/09/12 06:53:23;;;;;;;93.27;63.57;;;;;;;;;;5014826;28;20188;-79
2023/09/12 06:55:49;;;;;;;90.70;64.20;;;;;;;;;;5027859;28;20251;-79
2023/09/12 06:58:15;;;;;;;94.30;65.33;;;;;;;;;;5026219;28;20203;-79
2023/09/12 07:00:41;;;;;;;90.40;62.67;;;;;;;;;;5041494;28;20179;-79
2023/09/12 07:03:07;;;;;;;96.60;66.00;;;;;;;;;;5028939;28;20276;-79
2023/09/12 07:05:36;;;;;;;93.17;65.00;;;;;;;;;;5021072;28;20184;-80
2023/09/12 07:08:02;;;;;;;95.03;63.87;;;;;;;;;;5054856;28;20179;-82
2023/09/12 07:10:28;;;;;;;96.27;65.17;;;;;;;;;;5054727;28;20270;-83
2023/09/12 07:12:54;;;;;;;93.47;63.97;;;;;;;;;;5054923;28;20258;-77
2023/09/12 07:15:20;;;;;;;93.53;63.47;;;;;;;;;;5054854;28;20206;-78
2023/09/12 07:17:47;;;;;;;85.77;61.83;;;;;;;;;;5037437;28;20215;-77
2023/09/12 07:20:13;;;;;;;93.77;62.27;;;;;;;;;;5037092;28;20176;-77
2023/09/12 07:22:40;;;;;;;84.90;61.23;;;;;;;;;;5024416;28;20224;-76
2023/09/12 07:25:06;;;;;;;83.73;60.37;;;;;;;;;;5033950;28;20271;-77
2023/09/12 07:27:32;;;;;;;87.03;62.97;;;;;;;;;;5016593;28;20181;-77
2023/09/12 07:29:58;;;;;;;85.03;61.20;;;;;;;;;;5016838;28;20180;-79
2023/09/12 07:32:24;;;;;;;86.20;63.10;;;;;;;;;;5031683;28;20196;-80
2023/09/12 07:34:50;;;;;;;87.03;61.57;;;;;;;;;;4997184;28;20185;-79
2023/09/12 07:37:17;;;;;;;84.03;60.50;;;;;;;;;;4997198;28;20319;-79
2023/09/12 07:39:43;;;;;;;86.70;61.43;;;;;;;;;;5014869;28;20189;-80
2023/09/12 07:42:09;;;;;;;85.13;60.97;;;;;;;;;;4982498;28;20204;-79
2023/09/12 07:44:35;;;;;;;85.13;60.53;;;;;;;;;;5016752;28;20239;-84
2023/09/12 07:47:01;;;;;;;79.37;59.90;;;;;;;;;;5016807;28;20283;-83
2023/09/12 07:49:27;;;;;;;78.73;58.27;;;;;;;;;;5016731;28;20192;-83
2023/09/12 07:51:54;;;;;;;78.90;59.00;;;;;;;;;;5016634;28;20271;-84
2023/09/12 07:54:20;;;;;;;77.87;59.10;;;;;;;;;;5000027;28;20189;-83
2023/09/12 07:56:46;;;;;;;82.63;58.63;;;;;;;;;;5016369;28;20216;-84
2023/09/12 07:59:14;;;;;;;79.40;58.47;;;;;;;;;;4999291;28;20193;-84
2023/09/12 08:01:40;;;;;;;77.03;59.17;;;;;;;;;;5018815;28;20173;-79
2023/09/12 08:04:06;;;;;;;79.63;57.17;;;;;;;;;;4996256;28;20177;-79
2023/09/12 08:06:32;;;;;;;75.37;56.07;;;;;;;;;;4991225;28;20188;-80
2023/09/12 08:08:58;;;;;;;79.07;57.00;;;;;;;;;;5038129;28;20185;-80
2023/09/12 08:11:24;;;;;;;79.23;57.50;;;;;;;;;;5016796;28;20180;-80
2023/09/12 08:13:51;;;;;;;71.43;55.57;;;;;;;;;;5000081;28;20241;-78
2023/09/12 08:16:17;;;;;;;74.10;56.93;;;;;;;;;;5016184;28;20195;-77
2023/09/12 08:18:43;;;;;;;75.50;54.03;;;;;;;;;;5000184;28;20236;-76
2023/09/12 08:21:10;;;;;;;69.87;55.00;;;;;;;;;;5000227;28;20203;-77
2023/09/12 08:23:36;;;;;;;65.17;50.97;;;;;;;;;;5028467;28;20232;-77
2023/09/12 08:26:02;;;;;;;63.60;51.97;;;;;;;;;;5019019;28;20187;-78
2023/09/12 08:28:28;;;;;;;64.77;49.43;;;;;;;;;;5019430;28;20190;-77
2023/09/12 08:30:54;;;;;;;61.70;50.03;;;;;;;;;;5036190;28;20255;-77
2023/09/12 08:33:20;;;;;;;57.65;47.35;;;;;;;;;;5036128;28;20184;-77
2023/09/12 08:35:46;;;;;;;64.50;49.27;;;;;;;;;;5036037;28;20188;-77
2023/09/12 08:38:12;;;;;;;53.92;46.28;;;;;;;;;;5035862;28;20208;-78
2023/09/12 08:40:38;;;;;;;55.33;45.30;;;;;;;;;;5052335;28;20195;-79
2023/09/12 08:43:05;;;;;;;54.13;45.50;;;;;;;;;;5034206;28;20251;-80
2023/09/12 08:45:31;;;;;;;53.63;44.80;;;;;;;;;;5019777;28;20183;-80
2023/09/12 08:48:00;;;;;;;49.30;43.72;;;;;;;;;;5035827;28;20255;-80
2023/09/12 08:50:30;;;;;;;49.90;43.83;;;;;;;;;;5035775;28;20184;-80
2023/09/12 08:52:56;;;;;;;43.92;37.85;;;;;;;;;;5036178;28;20183;-81
2023/09/12 08:55:22;;;;;;;41.15;35.72;;;;;;;;;;5053482;28;20183;-80
2023/09/12 08:57:50;;;;;;;41.53;35.70;;;;;;;;;;5053446;28;20214;-81
2023/09/12 09:00:17;;;;;;;40.00;35.05;;;;;;;;;;5053556;28;20176;-80
2023/09/12 09:02:44;;;;;;;41.15;36.65;;;;;;;;;;5052353;28;20164;-80
2023/09/12 09:05:10;;;;;;;37.08;33.25;;;;;;;;;;5032889;28;20256;-81
2023/09/12 09:07:37;;;;;;;39.70;35.50;;;;;;;;;;5016516;28;20264;-80
2023/09/12 09:10:05;;;;;;;38.30;33.05;;;;;;;;;;5035310;28;20212;-84
2023/09/12 09:12:31;;;;;;;36.17;32.42;;;;;;;;;;5016073;28;20199;-83
2023/09/12 09:14:57;;;;;;;35.30;31.63;;;;;;;;;;5001565;28;20187;-83
2023/09/12 09:17:23;;;;;;;33.58;30.05;;;;;;;;;;5019677;28;20287;-83
2023/09/12 09:19:50;;;;;;;32.97;28.38;;;;;;;;;;5019846;28;20168;-84
2023/09/12 09:22:16;;;;;;;32.20;27.73;;;;;;;;;;5016546;28;20304;-84
2023/09/12 09:24:42;;;;;;;28.98;25.48;;;;;;;;;;5019502;28;20184;-87
2023/09/12 09:27:08;;;;;;;27.00;24.10;;;;;;;;;;5003744;28;20296;-89
2023/09/12 09:29:46;;;;;;;26.30;22.63;;;;;;;;;;5003422;28;20214;-88
2023/09/12 09:32:17;;;;;;;27.35;24.30;;;;;;;;;;5019945;28;20252;-88
2023/09/12 09:34:43;;;;;;;29.05;24.10;;;;;;;;;;5019158;28;20176;-88
2023/09/12 09:37:09;;;;;;;23.88;21.40;;;;;;;;;;5002859;28;20200;-89
2023/09/12 09:39:35;;;;;;;22.08;19.40;;;;;;;;;;5036429;28;20180;-88
2023/09/12 09:42:02;;;;;;;24.45;21.25;;;;;;;;;;5003053;28;20177;-80
2023/09/12 09:44:30;;;;;;;28.80;25.00;;;;;;;;;;5003052;28;20263;-80
2023/09/12 09:47:02;;;;;;;28.52;25.55;;;;;;;;;;5035594;28;20224;-80
2023/09/12 09:49:28;;;;;;;31.45;28.13;;;;;;;;;;5035583;28;20183;-80
2023/09/12 09:51:56;;;;;;;29.55;26.58;;;;;;;;;;5035772;28;20271;-80
2023/09/12 09:54:28;;;;;;;30.40;27.17;;;;;;;;;;5018784;28;20188;-80
2023/09/12 09:56:55;;;;;;;28.35;25.27;;;;;;;;;;5002908;28;20212;-80
2023/09/12 09:59:22;;;;;;;28.75;25.77;;;;;;;;;;5014426;28;20177;-84
2023/09/12 10:01:49;;;;;;;30.02;26.92;;;;;;;;;;5015183;28;20177;-84
2023/09/12 10:04:15;;;;;;;28.50;25.40;;;;;;;;;;5017189;28;20173;-84
2023/09/12 10:06:44;;;;;;;25.30;22.70;;;;;;;;;;5018832;28;20275;-83
2023/09/12 10:09:11;;;;;;;26.00;23.30;;;;;;;;;;5018920;28;20263;-83
2023/09/12 10:11:38;;;;;;;24.20;21.60;;;;;;;;;;5018526;28;20180;-84
2023/09/12 10:14:05;;;;;;;24.95;22.35;;;;;;;;;;5020451;28;20181;-84
2023/09/12 10:16:31;;;;;;;27.90;24.95;;;;;;;;;;5018491;28;20192;-81
2023/09/12 10:19:07;;;;;;;24.50;21.88;;;;;;;;;;5035917;28;20251;-81
2023/09/12 10:21:34;;;;;;;23.17;20.90;;;;;;;;;;5018648;28;20242;-82
2023/09/12 10:24:03;;;;;;;22.30;20.02;;;;;;;;;;5012163;28;20216;-82
2023/09/12 10:26:31;;;;;;;23.75;19.13;;;;;;;;;;5016824;28;20191;-82
2023/09/12 10:28:58;;;;;;;21.23;17.85;;;;;;;;;;5018775;28;20180;-81
2023/09/12 10:31:25;;;;;;;21.13;19.05;;;;;;;;;;5002053;28;20188;-88
2023/09/12 10:33:52;;;;;;;23.27;21.05;;;;;;;;;;5018395;28;20190;-88
2023/09/12 10:36:19;;;;;;;19.83;17.73;;;;;;;;;;5002487;28;20208;-88
2023/09/12 10:38:47;;;;;;;21.25;16.52;;;;;;;;;;5018604;28;20164;-88
2023/09/12 10:41:14;;;;;;;19.05;17.13;;;;;;;;;;5033162;28;20244;-88
2023/09/12 10:43:41;;;;;;;21.20;18.90;;;;;;;;;;5035618;28;20181;-88
2023/09/12 10:46:07;;;;;;;21.23;19.13;;;;;;;;;;5035617;28;20207;-88
2023/09/12 10:48:35;;;;;;;19.65;17.65;;;;;;;;;;5034670;28;20199;-88
2023/09/12 10:51:01;;;;;;;18.95;17.02;;;;;;;;;;5018771;28;20263;-88
2023/09/12 10:53:30;;;;;;;22.17;19.77;;;;;;;;;;5000996;28;20188;-89
2023/09/12 10:56:00;;;;;;;22.70;18.85;;;;;;;;;;5002223;28;20188;-88
2023/09/12 10:58:27;;;;;;;18.98;17.15;;;;;;;;;;5001018;28;20217;-89
2023/09/12 11:01:13;;;;;;;17.30;15.50;;;;;;;;;;5001908;28;20181;-89
2023/09/12 11:03:39;;;;;;;18.30;15.75;;;;;;;;;;5017740;28;20187;-89
2023/09/12 11:06:21;;;;;;;17.88;15.75;;;;;;;;;;5001593;28;20251;-82
2023/09/12 11:09:07;;;;;;;16.67;14.98;;;;;;;;;;5016893;28;20192;-82
2023/09/12 11:11:32;;;;;;;20.33;18.20;;;;;;;;;;5013933;28;20192;-82
2023/09/12 11:14:08;;;;;;;18.98;16.65;;;;;;;;;;5000995;28;20176;-81
2023/09/12 11:16:37;;;;;;;18.02;15.73;;;;;;;;;;5014392;28;20197;-81
2023/09/12 11:19:14;;;;;;;18.25;16.55;;;;;;;;;;4998104;28;20262;-80
2023/09/12 11:21:40;;;;;;;16.65;15.05;;;;;;;;;;4997811;28;20268;-83
2023/09/12 11:24:07;;;;;;;15.27;13.63;;;;;;;;;;4989834;28;20240;-84
2023/09/12 11:26:36;;;;;;;16.50;14.80;;;;;;;;;;4981409;28;20231;-84
2023/09/12 11:29:12;;;;;;;15.45;13.02;;;;;;;;;;4997761;28;20181;-84
2023/09/12 11:31:41;;;;;;;14.55;13.13;;;;;;;;;;4981553;28;20363;-83
2023/09/12 11:34:10;;;;;;;14.65;13.15;;;;;;;;;;4981025;28;20415;-83
2023/09/12 11:36:41;;;;;;;14.68;13.38;;;;;;;;;;5013048;23;20232;-78
2023/09/12 11:39:23;;;;;;;14.77;13.10;;;;;;;;;;5016326;28;20207;-80
2023/09/12 11:41:49;;;;;;;13.52;12.23;;;;;;;;;;5016655;28;20308;-80
2023/09/12 11:44:15;;;;;;;13.23;12.00;;;;;;;;;;5016550;28;20177;-81
2023/09/12 11:46:43;;;;;;;14.55;13.15;;;;;;;;;;5000419;28;20188;-80
2023/09/12 11:49:09;;;;;;;15.50;13.95;;;;;;;;;;5016494;28;20181;-80
2023/09/12 11:51:35;;;;;;;14.88;13.48;;;;;;;;;;5016461;28;20176;-80
2023/09/12 11:54:01;;;;;;;14.85;13.27;;;;;;;;;;4999830;28;20196;-81
2023/09/12 11:56:29;;;;;;;15.80;14.20;;;;;;;;;;5000042;28;20192;-81
2023/09/12 11:58:55;;;;;;;16.02;14.00;;;;;;;;;;5016692;28;20196;-80
2023/09/12 12:01:22;;;;;;;15.80;14.02;;;;;;;;;;5016471;28;20240;-81
2023/09/12 12:03:52;;;;;;;17.98;13.43;;;;;;;;;;5023068;28;20173;-80
2023/09/12 12:06:19;;;;;;;13.70;12.30;;;;;;;;;;4996341;28;20178;-81
2023/09/12 12:08:45;;;;;;;15.40;12.00;;;;;;;;;;5015087;28;20170;-80
2023/09/12 12:11:11;;;;;;;15.68;13.98;;;;;;;;;;4999943;28;20183;-82
2023/09/12 12:13:37;;;;;;;13.07;11.68;;;;;;;;;;4999916;28;20275;-83
2023/09/12 12:16:15;;;;;;;14.18;12.35;;;;;;;;;;4999668;28;20188;-83
2023/09/12 12:18:41;;;;;;;15.10;13.30;;;;;;;;;;5033434;28;20176;-84
2023/09/12 12:21:07;;;;;;;14.55;13.07;;;;;;;;;;5000007;28;20184;-83
2023/09/12 12:23:33;;;;;;;14.32;12.93;;;;;;;;;;4999696;28;20184;-83
2023/09/12 12:26:04;;;;;;;14.18;12.68;;;;;;;;;;4999821;28;20250;-83
2023/09/12 12:28:31;;;;;;;14.68;13.07;;;;;;;;;;5033651;28;20172;-79
2023/09/12 12:30:57;;;;;;;12.82;11.43;;;;;;;;;;5033600;28;20188;-80
2023/09/12 12:33:23;;;;;;;12.55;11.10;;;;;;;;;;5000017;28;20449;-81
2023/09/12 12:35:50;;;;;;;14.82;13.43;;;;;;;;;;4999803;28;20180;-80
2023/09/12 12:38:16;;;;;;;16.83;14.10;;;;;;;;;;4999615;28;20233;-83
2023/09/12 12:40:42;;;;;;;14.30;12.90;;;;;;;;;;5033388;28;20215;-83
2023/09/12 12:43:21;;;;;;;14.80;13.35;;;;;;;;;;4999841;28;20192;-83
2023/09/12 12:45:54;;;;;;;15.98;12.95;;;;;;;;;;5000268;28;20204;-83
2023/09/12 12:48:30;;;;;;;14.45;13.05;;;;;;;;;;5016574;28;20176;-84
2023/09/12 12:50:56;;;;;;;13.57;12.23;;;;;;;;;;5019820;28;20201;-83
2023/09/12 12:53:38;;;;;;;13.00;11.43;;;;;;;;;;5015272;28;20189;-81
2023/09/12 12:56:04;;;;;;;12.32;9.40;;;;;;;;;;5019891;28;20177;-83
2023/09/12 12:58:30;;;;;;;13.68;11.82;;;;;;;;;;5035167;28;20216;-83
2023/09/12 13:00:56;;;;;;;16.90;14.38;;;;;;;;;;5019937;28;20177;-81
2023/09/12 13:03:22;;;;;;;16.88;14.38;;;;;;;;;;5019476;28;20184;-81
2023/09/12 13:05:48;;;;;;;13.95;12.60;;;;;;;;;;5019220;28;20231;-82
2023/09/12 13:08:14;;;;;;;13.27;10.88;;;;;;;;;;5003248;28;20180;-82
2023/09/12 13:10:42;;;;;;;15.82;14.23;;;;;;;;;;5002996;28;20181;-81
2023/09/12 13:13:08;;;;;;;15.07;13.38;;;;;;;;;;5019065;28;20216;-82
2023/09/12 13:15:34;;;;;;;15.20;13.65;;;;;;;;;;5003144;28;20196;-82
2023/09/12 13:18:01;;;;;;;15.20;12.30;;;;;;;;;;5002594;28;20212;-78
2023/09/12 13:20:27;;;;;;;15.25;12.35;;;;;;;;;;5011723;28;20244;-78
2023/09/12 13:22:53;;;;;;;14.27;12.88;;;;;;;;;;5000982;28;20188;-78
2023/09/12 13:25:20;;;;;;;14.15;12.70;;;;;;;;;;4998335;28;20191;-77
2023/09/12 13:27:47;;;;;;;15.70;13.05;;;;;;;;;;5017142;28;20263;-77
2023/09/12 13:30:13;;;;;;;14.88;13.15;;;;;;;;;;5018039;28;20264;-78
2023/09/12 13:32:39;;;;;;;14.88;12.98;;;;;;;;;;5002502;28;20203;-77
2023/09/12 13:35:06;;;;;;;14.82;13.43;;;;;;;;;;5015763;28;20216;-75
2023/09/12 13:37:38;;;;;;;15.77;13.93;;;;;;;;;;5021885;22;20324;-83
2023/09/12 13:40:07;;;;;;;15.68;13.52;;;;;;;;;;5017527;28;20192;-83
2023/09/12 13:42:33;;;;;;;15.63;13.95;;;;;;;;;;5019034;28;20168;-82
2023/09/12 13:44:59;;;;;;;14.35;12.82;;;;;;;;;;5002814;28;20180;-82
2023/09/12 13:47:26;;;;;;;14.30;12.40;;;;;;;;;;5001688;28;20328;-83
2023/09/12 13:49:59;;;;;;;14.32;12.93;;;;;;;;;;4999542;28;20196;-82
2023/09/12 13:52:27;;;;;;;14.52;12.82;;;;;;;;;;5008019;28;20192;-83
2023/09/12 13:54:53;;;;;;;12.85;11.50;;;;;;;;;;5012477;28;20180;-83
2023/09/12 13:57:19;;;;;;;14.45;12.90;;;;;;;;;;5017011;28;21153;-83
2023/09/12 13:59:46;;;;;;;13.95;12.23;;;;;;;;;;5018814;28;20180;-83
2023/09/12 14:02:12;;;;;;;13.88;12.00;;;;;;;;;;5001235;28;20184;-83
2023/09/12 14:04:38;;;;;;;12.52;11.23;;;;;;;;;;5016737;28;20183;-83
2023/09/12 14:07:07;;;;;;;11.88;10.68;;;;;;;;;;5019077;28;20173;-83
2023/09/12 14:09:36;;;;;;;12.68;11.35;;;;;;;;;;5002147;28;20548;-83
2023/09/12 14:12:05;;;;;;;13.55;12.13;;;;;;;;;;5018351;28;20272;-83
2023/09/12 14:14:34;;;;;;;14.10;11.98;;;;;;;;;;5019963;28;20183;-83